sensor_id;sensor_type;location;lat;lon;timestamp;pressure;altitude;pressure_sealevel;temperature;humidity
29815;BME280;16708;50.426;7.664;2023-01-26T00:01:53;994.72;;;-1.87;100.00
29815;BME280;16708;50.426;7.664;2023-01-26T00:16:28;994.57;;;-1.82;100.00
29815;BME280;16708;50.426;7.664;2023-01-26T00:31:05;994.46;;;-1.92;100.00
29815;BME280;16708;50.426;7.664;2023-01-26T00:45:43;994.35;;;-1.97;100.00
29815;BME280;16708;50.426;7.664;2023-01-26T01:00:18;994.27;;;-1.87;100.00
29815;BME280;16708;50.426;7.664;2023-01-26T01:14:53;994.23;;;-1.85;100.00
29815;BME280;16708;50.426;7.664;2023-01-26T01:29:31;994.14;;;-2.00;100.00
29815;BME280;16708;50.426;7.664;2023-01-26T01:58:45;994.07;;;-2.01;100.00
29815;BME280;16708;50.426;7.664;2023-01-26T02:13:20;993.72;;;-1.76;100.00
29815;BME280;16708;50.426;7.664;2023-01-26T02:27:56;993.60;;;-1.88;100.00
29815;BME280;16708;50.426;7.664;2023-01-26T02:42:32;993.46;;;-1.88;100.00
29815;BME280;16708;50.426;7.664;2023-01-26T02:57:09;993.29;;;-1.91;100.00
29815;BME280;16708;50.426;7.664;2023-01-26T03:11:47;993.25;;;-2.01;100.00
29815;BME280;16708;50.426;7.664;2023-01-26T03:26:23;993.20;;;-2.10;100.00
29815;BME280;16708;50.426;7.664;2023-01-26T03:41:01;993.13;;;-2.14;100.00
29815;BME280;16708;50.426;7.664;2023-01-26T03:55:36;993.03;;;-1.94;100.00
29815;BME280;16708;50.426;7.664;2023-01-26T04:10:10;993.01;;;-1.88;100.00
29815;BME280;16708;50.426;7.664;2023-01-26T04:24:44;992.92;;;-2.09;100.00
29815;BME280;16708;50.426;7.664;2023-01-26T04:39:20;992.96;;;-2.03;100.00
29815;BME280;16708;50.426;7.664;2023-01-26T04:54:01;992.98;;;-2.33;100.00
29815;BME280;16708;50.426;7.664;2023-01-26T05:08:32;992.92;;;-2.24;100.00
29815;BME280;16708;50.426;7.664;2023-01-26T05:23:10;992.73;;;-2.44;100.00
29815;BME280;16708;50.426;7.664;2023-01-26T05:37:45;992.84;;;-2.50;100.00
29815;BME280;16708;50.426;7.664;2023-01-26T05:52:18;992.86;;;-2.58;100.00
29815;BME280;16708;50.426;7.664;2023-01-26T06:06:55;992.84;;;-2.54;100.00
29815;BME280;16708;50.426;7.664;2023-01-26T06:21:33;992.92;;;-2.09;100.00
29815;BME280;16708;50.426;7.664;2023-01-26T06:36:09;993.04;;;-2.32;100.00
29815;BME280;16708;50.426;7.664;2023-01-26T06:50:45;993.03;;;-2.27;100.00
29815;BME280;16708;50.426;7.664;2023-01-26T07:05:23;993.00;;;-2.16;100.00
29815;BME280;16708;50.426;7.664;2023-01-26T07:20:00;993.08;;;-1.99;100.00
29815;BME280;16708;50.426;7.664;2023-01-26T07:34:37;993.22;;;-2.03;100.00
29815;BME280;16708;50.426;7.664;2023-01-26T07:49:13;993.51;;;-2.07;100.00
29815;BME280;16708;50.426;7.664;2023-01-26T08:03:50;993.53;;;-1.92;100.00
29815;BME280;16708;50.426;7.664;2023-01-26T08:18:26;993.48;;;-0.65;100.00
29815;BME280;16708;50.426;7.664;2023-01-26T08:33:04;993.42;;;-1.56;100.00
29815;BME280;16708;50.426;7.664;2023-01-26T08:47:41;993.57;;;-1.54;100.00
29815;BME280;16708;50.426;7.664;2023-01-26T09:02:10;993.54;;;-1.14;100.00
29815;BME280;16708;50.426;7.664;2023-01-26T09:16:48;993.65;;;-0.95;100.00
29815;BME280;16708;50.426;7.664;2023-01-26T09:31:25;993.64;;;-1.08;100.00
29815;BME280;16708;50.426;7.664;2023-01-26T09:46:04;993.74;;;-0.77;100.00
29815;BME280;16708;50.426;7.664;2023-01-26T10:00:42;993.60;;;-0.90;100.00
29815;BME280;16708;50.426;7.664;2023-01-26T10:15:13;993.56;;;-0.83;100.00
29815;BME280;16708;50.426;7.664;2023-01-26T10:29:49;993.41;;;-0.32;100.00
29815;BME280;16708;50.426;7.664;2023-01-26T10:44:28;993.39;;;-0.37;100.00
29815;BME280;16708;50.426;7.664;2023-01-26T10:59:03;993.26;;;-0.36;100.00
29815;BME280;16708;50.426;7.664;2023-01-26T11:13:40;993.22;;;-0.50;100.00
29815;BME280;16708;50.426;7.664;2023-01-26T11:57:21;992.75;;;0.14;100.00
29815;BME280;16708;50.426;7.664;2023-01-26T12:12:00;992.53;;;0.44;100.00
29815;BME280;16708;50.426;7.664;2023-01-26T12:26:38;992.34;;;0.45;100.00
29815;BME280;16708;50.426;7.664;2023-01-26T12:41:08;992.12;;;0.38;100.00
29815;BME280;16708;50.426;7.664;2023-01-26T12:55:45;992.06;;;0.26;100.00
29815;BME280;16708;50.426;7.664;2023-01-26T13:10:18;992.11;;;0.37;100.00
29815;BME280;16708;50.426;7.664;2023-01-26T13:39:24;992.03;;;-0.26;100.00
29815;BME280;16708;50.426;7.664;2023-01-26T13:54:00;991.90;;;-0.40;100.00
29815;BME280;16708;50.426;7.664;2023-01-26T14:08:37;992.15;;;-0.31;100.00
29815;BME280;16708;50.426;7.664;2023-01-26T14:23:12;992.13;;;-0.36;100.00
29815;BME280;16708;50.426;7.664;2023-01-26T14:52:26;992.31;;;-0.54;100.00
29815;BME280;16708;50.426;7.664;2023-01-26T15:07:02;992.27;;;-0.55;100.00
29815;BME280;16708;50.426;7.664;2023-01-26T15:21:39;992.32;;;-0.52;100.00
29815;BME280;16708;50.426;7.664;2023-01-26T15:36:15;992.36;;;-0.64;100.00
29815;BME280;16708;50.426;7.664;2023-01-26T16:05:21;992.31;;;-0.43;100.00
29815;BME280;16708;50.426;7.664;2023-01-26T16:19:55;992.32;;;-0.45;100.00
29815;BME280;16708;50.426;7.664;2023-01-26T16:34:30;992.36;;;-0.56;100.00
29815;BME280;16708;50.426;7.664;2023-01-26T16:49:08;992.34;;;-0.50;100.00
29815;BME280;16708;50.426;7.664;2023-01-26T17:03:44;992.35;;;-0.41;100.00
29815;BME280;16708;50.426;7.664;2023-01-26T17:18:21;992.35;;;-0.52;100.00
29815;BME280;16708;50.426;7.664;2023-01-26T17:32:59;992.47;;;-0.57;100.00
29815;BME280;16708;50.426;7.664;2023-01-26T17:47:35;992.52;;;-0.54;100.00
29815;BME280;16708;50.426;7.664;2023-01-26T18:02:12;992.60;;;-0.59;100.00
29815;BME280;16708;50.426;7.664;2023-01-26T18:16:48;992.65;;;-0.50;100.00
29815;BME280;16708;50.426;7.664;2023-01-26T18:31:23;992.70;;;-0.41;100.00
29815;BME280;16708;50.426;7.664;2023-01-26T18:46:01;992.64;;;-0.53;100.00
29815;BME280;16708;50.426;7.664;2023-01-26T19:00:39;992.62;;;-0.37;100.00
29815;BME280;16708;50.426;7.664;2023-01-26T19:15:15;992.54;;;-0.25;100.00
29815;BME280;16708;50.426;7.664;2023-01-26T19:29:53;992.61;;;-0.21;100.00
29815;BME280;16708;50.426;7.664;2023-01-26T19:44:26;992.60;;;-0.15;100.00
29815;BME280;16708;50.426;7.664;2023-01-26T19:59:03;992.54;;;-0.22;100.00
29815;BME280;16708;50.426;7.664;2023-01-26T20:13:43;992.45;;;-0.04;100.00
29815;BME280;16708;50.426;7.664;2023-01-26T20:28:16;992.50;;;0.11;100.00
29815;BME280;16708;50.426;7.664;2023-01-26T20:42:54;992.44;;;0.15;100.00
29815;BME280;16708;50.426;7.664;2023-01-26T20:57:31;992.46;;;0.15;100.00
29815;BME280;16708;50.426;7.664;2023-01-26T21:12:05;992.25;;;0.22;100.00
29815;BME280;16708;50.426;7.664;2023-01-26T21:26:41;992.10;;;0.13;100.00
29815;BME280;16708;50.426;7.664;2023-01-26T21:41:19;992.08;;;0.11;100.00
29815;BME280;16708;50.426;7.664;2023-01-26T21:55:57;991.90;;;0.25;100.00
29815;BME280;16708;50.426;7.664;2023-01-26T22:10:34;991.81;;;0.28;100.00
29815;BME280;16708;50.426;7.664;2023-01-26T22:25:04;991.83;;;0.43;100.00
29815;BME280;16708;50.426;7.664;2023-01-26T22:39:41;991.76;;;0.28;100.00
29815;BME280;16708;50.426;7.664;2023-01-26T22:54:18;991.76;;;0.08;100.00
29815;BME280;16708;50.426;7.664;2023-01-26T23:08:57;991.75;;;0.31;100.00
29815;BME280;16708;50.426;7.664;2023-01-26T23:23:35;991.66;;;0.29;100.00
29815;BME280;16708;50.426;7.664;2023-01-26T23:38:12;991.63;;;0.31;100.00
29815;BME280;16708;50.426;7.664;2023-01-26T23:52:51;991.60;;;0.46;100.00
